New Liberty, Kentucky
Current Conditions -  °F | °C
As of 8:53 AM on Friday 19 Dec 2014 (Local Time) from KFFT Reporting Station
Haze Haze  
Wind Chill: 26°   Ceiling: 1300
Heat Index: 26°   Visibility: 5mi
Dew Point: 22°   Wind: 0mph
Humidity: 84%   Direction: NA
Pressure: 30.28"   Gusts: NA
Location:  38.62°N, 84.91°W
Report Text: KFFT 191353Z AUTO 00000KT 5SM BR BKN013 M03/M06 A3028 RMK AO2 SLP262 T10331056
Loading
Personal Weather Stations






























Interactive Weather Map New forecast layout! Learn more

10-Day Weather Forecast

Advertisements
Track Severe Weather on mobile